메인 페이지
METAR-TAF:

METAR-TAF

공항 :

벨렝, 파라, 브라질

위도: 01-23S, 경도: 048-29W, 고도: 16m

현재 날씨관측

예보는 1 시간 4분 전, 21:00시(UTC)에 발표되었습니다.
9kt
온도 31°C
습도 75%
기압 1011 hPa
시정 10km 이상
고도 4000ft 상공 구름 조금

METAR: SBBE 202100Z 35009KT 9999 FEW040 31/26 Q1011

시각: 19:04 (22:04 UTC)

예보

예보는 7 시간 11분 전, 14:53시(UTC)에 발표되었습니다.
예보 대상 시간: 20일 18시부터 21일 18시까지 (UTC)
북북서5kt
시정 10km 이상
고도 3000ft 상공 구름 보통
고도 4000ft 상공 구름 조금, 타워링 적운.
전환 중
20일 21시부터 20일 23시까지 (UTC)
북북동10kt
시정 10km 이상
1500m 미만 상공 구름 및 적란운 없음
전환 중
21일 12시부터 21일 14시까지 (UTC)
6kt
전환 중
21일 14시부터 21일 16시까지 (UTC)
북북서5kt
고도 4000ft 상공 구름 보통

TAF: SBBE 201453Z 2018/2118 34005KT 9999 SCT030 FEW040TCU TN25/2108Z TX32/2116Z BECMG 2021/2023 03010KT CAVOK BECMG 2112/2114 09006KT BECMG 2114/2116 34005KT SCT040 RMK PGU

4,000개 이상의 공항 관측 자료 및 예보 (METAR 및 TAF 보고).

지도상에서 검색 가능한 기상관측소가 노란 점과 빨간 점으로 표시되어 있습니다.

기상관측소 명을 보려면 표시 위로 마우스를 이동하세요.

날씨 관측과 예보를 보려면 클릭하세요.

지도 변경 : 확대하려면 엑스 표시가 있는 녹색 버튼, 축소하려면 빼기 표시가 있는 녹색 버튼, 다음 페이지의 지도를 보려면 녹색 화살표를 클릭하세요.


METAR-TAF: